Time;durP1;ratioP1;P1;durP2;ratioP2;P2;SDS_P1;SDS_P2;PMS_P1;PMS_P2;Temp;Humidity;BMP_temperature;BMP_pressure;BME280_temperature;BME280_humidity;BME280_pressure;Samples;Min_cycle;Max_cycle;Signal;HPM_P1;HPM_P2
2022/01/05 00:01:26;;;;;;;7.82;2.10;;;2.20;99.90;;;;;;5080343;28;20196;-70
2022/01/05 00:03:54;;;;;;;7.90;2.33;;;2.20;99.90;;;;;;5079576;28;20235;-71
2022/01/05 00:06:22;;;;;;;8.02;5.07;;;2.20;99.90;;;;;;5084338;28;20226;-73
2022/01/05 00:08:50;;;;;;;6.50;3.15;;;2.20;99.90;;;;;;5086741;28;20314;-74
2022/01/05 00:11:19;;;;;;;10.48;2.60;;;2.20;99.90;;;;;;5086300;28;20871;-69
2022/01/05 00:13:47;;;;;;;3.28;1.65;;;2.10;99.90;;;;;;5091775;28;20367;-70
2022/01/05 00:16:15;;;;;;;10.85;2.38;;;2.10;99.90;;;;;;5097167;28;20288;-70
2022/01/05 00:18:42;;;;;;;9.25;1.58;;;2.10;99.90;;;;;;5097456;28;20775;-66
2022/01/05 00:21:11;;;;;;;10.40;1.80;;;2.20;99.90;;;;;;5093464;28;20200;-66
2022/01/05 00:23:38;;;;;;;3.20;1.70;;;2.20;99.90;;;;;;5096385;28;20549;-66
2022/01/05 00:26:06;;;;;;;8.10;1.80;;;2.20;99.90;;;;;;5098086;28;20280;-67
2022/01/05 00:28:35;;;;;;;9.80;1.85;;;2.10;99.90;;;;;;5084225;28;20278;-68
2022/01/05 00:31:04;;;;;;;5.43;1.38;;;2.10;99.90;;;;;;5083367;28;20200;-66
2022/01/05 00:33:32;;;;;;;1.63;1.15;;;2.10;99.90;;;;;;5081745;28;20196;-67
2022/01/05 00:35:59;;;;;;;6.35;1.50;;;2.10;99.90;;;;;;5082507;28;20719;-66
2022/01/05 00:38:27;;;;;;;6.32;1.77;;;2.00;99.90;;;;;;5062004;28;20752;-68
2022/01/05 00:40:55;;;;;;;5.47;1.83;;;2.00;99.90;;;;;;5062480;28;20211;-68
2022/01/05 00:43:23;;;;;;;5.65;1.63;;;2.00;99.90;;;;;;5081526;28;20581;-67
2022/01/05 00:45:52;;;;;;;8.45;2.30;;;2.00;99.90;;;;;;5070075;28;20213;-69
2022/01/05 00:48:23;;;;;;;4.03;1.20;;;2.00;99.90;;;;;;5060863;28;20205;-68
2022/01/05 00:50:51;;;;;;;4.20;1.70;;;2.00;99.90;;;;;;5069714;28;20222;-67
2022/01/05 00:53:19;;;;;;;4.32;1.50;;;2.00;99.90;;;;;;5075154;28;20208;-68
2022/01/05 00:55:47;;;;;;;8.80;2.53;;;2.00;99.90;;;;;;5065450;28;20369;-66
2022/01/05 00:58:15;;;;;;;4.97;2.10;;;2.00;99.90;;;;;;5081384;28;20561;-67
2022/01/05 01:00:42;;;;;;;2.13;0.98;;;1.90;99.90;;;;;;5071842;28;20668;-67
2022/01/05 01:03:12;;;;;;;7.30;2.10;;;2.00;99.90;;;;;;5066455;28;20192;-67
2022/01/05 01:05:40;;;;;;;3.85;1.30;;;2.00;99.90;;;;;;5080988;28;20780;-67
2022/01/05 01:08:09;;;;;;;6.80;1.23;;;1.90;99.90;;;;;;5080843;28;20572;-68
2022/01/05 01:10:38;;;;;;;8.45;1.58;;;1.90;99.90;;;;;;5081198;28;20220;-67
2022/01/05 01:13:06;;;;;;;8.57;2.05;;;1.90;99.90;;;;;;5081064;28;20230;-69
2022/01/05 01:15:34;;;;;;;2.63;1.42;;;1.90;99.90;;;;;;5080810;28;20702;-68
2022/01/05 01:18:01;;;;;;;4.57;1.65;;;1.90;99.90;;;;;;5080491;28;20299;-67
2022/01/05 01:20:31;;;;;;;2.65;1.52;;;1.90;99.90;;;;;;5080649;28;20311;-67
2022/01/05 01:22:58;;;;;;;4.65;1.60;;;1.90;99.90;;;;;;5081344;28;20210;-68
2022/01/05 01:25:26;;;;;;;4.57;1.25;;;1.90;99.90;;;;;;5081340;28;20299;-67
2022/01/05 01:27:54;;;;;;;6.88;1.23;;;1.90;99.90;;;;;;5084829;28;20294;-68
2022/01/05 01:30:22;;;;;;;2.88;1.85;;;2.00;99.90;;;;;;5075362;28;20220;-68
2022/01/05 01:32:50;;;;;;;3.95;1.60;;;2.00;99.90;;;;;;5064877;28;20201;-68
2022/01/05 01:35:18;;;;;;;2.53;1.90;;;1.90;99.90;;;;;;5080638;28;20205;-69
2022/01/05 01:37:47;;;;;;;5.40;2.10;;;1.90;99.90;;;;;;5077832;28;20341;-69
2022/01/05 01:40:15;;;;;;;5.75;1.85;;;1.90;99.90;;;;;;5060309;28;20730;-67
2022/01/05 01:42:43;;;;;;;9.07;1.90;;;1.90;99.90;;;;;;5061223;28;20277;-68
2022/01/05 01:45:11;;;;;;;5.93;2.30;;;1.90;99.90;;;;;;5060528;28;20216;-68
2022/01/05 01:47:40;;;;;;;8.88;3.00;;;1.90;99.90;;;;;;5060581;28;20263;-67
2022/01/05 01:50:09;;;;;;;5.15;1.38;;;1.90;99.90;;;;;;5060382;28;20227;-69
2022/01/05 01:52:36;;;;;;;10.10;2.17;;;1.80;99.90;;;;;;5060092;28;20245;-68
2022/01/05 01:55:07;;;;;;;5.90;1.77;;;1.80;99.90;;;;;;5060895;28;20201;-67
2022/01/05 01:57:37;;;;;;;5.90;1.25;;;1.80;99.90;;;;;;5060303;28;20852;-69
2022/01/05 02:00:07;;;;;;;7.80;2.33;;;1.80;99.90;;;;;;5060196;28;20590;-69
2022/01/05 02:02:36;;;;;;;9.18;1.70;;;1.90;99.90;;;;;;5071461;28;20232;-67
2022/01/05 02:05:05;;;;;;;10.13;2.15;;;1.90;99.90;;;;;;5086186;28;20197;-67
2022/01/05 02:07:33;;;;;;;8.57;2.20;;;1.80;99.90;;;;;;5062518;28;20304;-69
2022/01/05 02:10:02;;;;;;;9.90;2.25;;;1.80;99.90;;;;;;5060463;28;20235;-68
2022/01/05 02:12:31;;;;;;;8.20;1.80;;;1.80;99.90;;;;;;5060365;28;20679;-67
2022/01/05 02:14:59;;;;;;;12.98;2.08;;;1.80;99.90;;;;;;5059526;28;20297;-68
2022/01/05 02:17:42;;;;;;;6.22;1.73;;;1.80;99.90;;;;;;5060103;28;20220;-67
2022/01/05 02:20:16;;;;;;;4.60;2.20;;;1.80;99.90;;;;;;5059441;28;20197;-69
2022/01/05 02:22:45;;;;;;;3.45;2.22;;;1.80;99.90;;;;;;5059931;28;20284;-68
2022/01/05 02:25:14;;;;;;;14.95;2.90;;;1.70;99.90;;;;;;5058874;28;20745;-66
2022/01/05 02:27:43;;;;;;;11.00;3.00;;;1.80;99.90;;;;;;5059582;28;20884;-68
2022/01/05 02:30:14;;;;;;;5.65;2.47;;;1.70;99.90;;;;;;5059516;28;20232;-67
2022/01/05 02:32:41;;;;;;;10.95;1.70;;;1.70;99.90;;;;;;5061126;28;20211;-69
2022/01/05 02:35:10;;;;;;;14.75;2.30;;;1.70;99.90;;;;;;5060558;28;20300;-69
2022/01/05 02:37:42;;;;;;;9.88;4.25;;;1.70;99.90;;;;;;5065784;28;20889;-65
2022/01/05 02:40:14;;;;;;;8.10;1.85;;;1.70;99.90;;;;;;5060709;28;20202;-67
2022/01/05 02:42:43;;;;;;;10.48;1.80;;;1.70;99.90;;;;;;5060648;28;20764;-67
2022/01/05 02:45:12;;;;;;;6.80;2.40;;;1.70;99.90;;;;;;5060341;28;20215;-68
2022/01/05 02:47:41;;;;;;;7.85;1.92;;;1.70;99.90;;;;;;5061352;28;20228;-67
2022/01/05 02:50:11;;;;;;;8.73;2.40;;;1.70;99.90;;;;;;5060282;28;20225;-68
2022/01/05 02:52:40;;;;;;;11.15;1.85;;;1.70;99.90;;;;;;5060230;28;20239;-66
2022/01/05 02:55:09;;;;;;;12.52;2.10;;;1.70;99.90;;;;;;5058996;28;20216;-67
2022/01/05 02:57:39;;;;;;;16.20;2.35;;;1.70;99.90;;;;;;5059045;28;20285;-67
2022/01/05 03:00:10;;;;;;;8.90;2.10;;;1.70;99.90;;;;;;5059213;28;20722;-67
2022/01/05 03:02:38;;;;;;;6.22;1.30;;;1.70;99.90;;;;;;5059596;28;20197;-70
2022/01/05 03:05:07;;;;;;;6.22;1.90;;;1.60;99.90;;;;;;5063741;28;20205;-68
2022/01/05 03:07:39;;;;;;;15.63;1.75;;;1.70;99.90;;;;;;5061271;28;20251;-68
2022/01/05 03:10:09;;;;;;;6.28;1.30;;;1.60;99.90;;;;;;5058999;28;20227;-68
2022/01/05 03:12:40;;;;;;;5.60;2.00;;;1.70;99.90;;;;;;5059021;28;20207;-69
2022/01/05 03:15:09;;;;;;;4.07;1.55;;;1.70;99.90;;;;;;5058898;28;20200;-69
2022/01/05 03:17:37;;;;;;;8.63;2.00;;;1.70;99.90;;;;;;5059137;28;20309;-69
2022/01/05 03:20:06;;;;;;;8.43;1.80;;;1.70;99.90;;;;;;5058754;28;20197;-69
2022/01/05 03:22:34;;;;;;;8.23;2.33;;;1.70;99.90;;;;;;5058597;28;20205;-69
2022/01/05 03:25:02;;;;;;;5.57;1.58;;;1.70;99.90;;;;;;5058593;28;20201;-69
2022/01/05 03:27:30;;;;;;;6.53;1.40;;;1.70;99.90;;;;;;5058816;28;20225;-69
2022/01/05 03:29:59;;;;;;;11.98;1.73;;;1.70;99.90;;;;;;5058894;28;20316;-68
2022/01/05 03:32:34;;;;;;;8.85;2.00;;;1.70;99.90;;;;;;5058717;28;20767;-69
2022/01/05 03:35:05;;;;;;;6.40;2.10;;;1.60;99.90;;;;;;5058629;28;20230;-68
2022/01/05 03:37:32;;;;;;;5.85;1.95;;;1.70;99.90;;;;;;5058526;28;20225;-67
2022/01/05 03:40:00;;;;;;;7.93;2.55;;;1.70;99.90;;;;;;5057730;28;20204;-68
2022/01/05 03:42:28;;;;;;;9.75;1.98;;;1.70;99.90;;;;;;5058361;28;20215;-69
2022/01/05 03:44:56;;;;;;;12.13;2.08;;;1.70;99.90;;;;;;5058291;28;20217;-69
2022/01/05 03:47:25;;;;;;;4.45;1.48;;;1.70;99.90;;;;;;5059763;28;20228;-69
2022/01/05 03:49:53;;;;;;;6.63;1.95;;;1.70;99.90;;;;;;5058321;28;20211;-68
2022/01/05 03:52:21;;;;;;;5.38;2.05;;;1.70;99.90;;;;;;5058681;28;20201;-68
2022/01/05 03:54:49;;;;;;;9.90;1.92;;;1.70;99.90;;;;;;5058139;28;20205;-68
2022/01/05 03:57:16;;;;;;;5.18;1.70;;;1.70;99.90;;;;;;5058828;28;20256;-67
2022/01/05 03:59:44;;;;;;;5.68;1.70;;;1.70;99.90;;;;;;5057988;28;20207;-67
2022/01/05 04:02:12;;;;;;;13.02;2.90;;;1.70;99.90;;;;;;5058684;28;20186;-68
2022/01/05 04:04:42;;;;;;;2.55;1.85;;;1.80;99.90;;;;;;5058266;28;20656;-67
2022/01/05 04:07:10;;;;;;;12.63;1.73;;;1.80;99.90;;;;;;5057934;28;20708;-69
2022/01/05 04:09:38;;;;;;;10.50;2.33;;;1.70;99.90;;;;;;5058901;28;20201;-69
2022/01/05 04:12:06;;;;;;;3.78;1.58;;;1.80;99.90;;;;;;5058947;28;20220;-69
2022/01/05 04:14:34;;;;;;;4.18;1.88;;;1.80;99.90;;;;;;5057641;28;20695;-68
2022/01/05 04:17:05;;;;;;;12.55;2.30;;;1.90;99.90;;;;;;5057981;28;20282;-67
2022/01/05 04:19:32;;;;;;;7.95;2.03;;;1.90;99.90;;;;;;5057887;28;20681;-67
2022/01/05 04:22:02;;;;;;;6.90;2.10;;;2.00;99.90;;;;;;5058714;28;20792;-69
2022/01/05 04:24:30;;;;;;;6.97;1.92;;;2.10;99.90;;;;;;5058792;28;20472;-66
2022/01/05 04:26:58;;;;;;;4.95;2.00;;;2.20;99.90;;;;;;5058941;28;20860;-68
2022/01/05 04:29:26;;;;;;;6.70;2.00;;;2.30;99.90;;;;;;5060078;28;20205;-66
2022/01/05 04:31:54;;;;;;;5.07;2.00;;;2.40;99.90;;;;;;5078805;28;20473;-66
2022/01/05 04:34:22;;;;;;;8.30;1.30;;;2.40;99.90;;;;;;5078062;28;20197;-69
2022/01/05 04:37:11;;;;;;;6.03;2.25;;;2.50;99.90;;;;;;5058957;28;20228;-67
2022/01/05 04:39:39;;;;;;;4.18;1.50;;;2.60;99.90;;;;;;5061236;28;20201;-69
2022/01/05 04:42:08;;;;;;;8.35;1.73;;;2.70;99.90;;;;;;5060227;28;20296;-65
2022/01/05 04:44:36;;;;;;;10.55;1.85;;;2.70;99.90;;;;;;5058418;28;20705;-65
2022/01/05 04:47:06;;;;;;;10.98;1.77;;;2.70;99.90;;;;;;5058327;28;20232;-68
2022/01/05 04:49:34;;;;;;;5.75;2.85;;;2.70;99.90;;;;;;5057610;28;20201;-68
2022/01/05 04:52:01;;;;;;;17.00;3.00;;;2.70;99.90;;;;;;5058949;28;20311;-68
2022/01/05 04:54:31;;;;;;;6.22;1.65;;;2.80;99.90;;;;;;5061074;28;20203;-69
2022/01/05 04:56:59;;;;;;;7.07;3.55;;;2.80;99.90;;;;;;5061356;28;20958;-67
2022/01/05 04:59:27;;;;;;;5.22;3.55;;;2.90;99.90;;;;;;5061503;28;20284;-67
2022/01/05 05:01:55;;;;;;;13.07;2.72;;;3.00;99.90;;;;;;5061239;28;20240;-69
2022/01/05 05:04:23;;;;;;;9.02;1.90;;;3.00;99.90;;;;;;5061069;28;20811;-67
2022/01/05 05:06:51;;;;;;;7.18;2.75;;;3.10;99.90;;;;;;5061039;28;20216;-65
2022/01/05 05:09:19;;;;;;;13.07;2.53;;;3.20;99.90;;;;;;5061716;28;20201;-67
2022/01/05 05:11:49;;;;;;;8.43;2.10;;;3.10;99.90;;;;;;5061098;28;20216;-67
2022/01/05 05:14:17;;;;;;;2.95;1.60;;;3.20;99.90;;;;;;5061800;28;20197;-67
2022/01/05 05:16:45;;;;;;;7.60;1.83;;;3.30;99.90;;;;;;5061572;28;20336;-67
2022/01/05 05:19:13;;;;;;;11.73;2.25;;;3.30;99.90;;;;;;5067310;28;20774;-69
2022/01/05 05:21:40;;;;;;;7.55;1.80;;;3.30;99.90;;;;;;5062984;28;20201;-68
2022/01/05 05:24:10;;;;;;;4.63;1.98;;;3.40;99.90;;;;;;5062501;28;20201;-69
2022/01/05 05:26:38;;;;;;;11.20;2.10;;;3.50;99.90;;;;;;5062310;28;20227;-68
2022/01/05 05:29:07;;;;;;;5.07;2.40;;;3.50;99.90;;;;;;5062629;28;20201;-67
2022/01/05 05:31:35;;;;;;;6.40;1.50;;;3.60;99.90;;;;;;5062361;28;20227;-68
2022/01/05 05:34:03;;;;;;;10.00;2.15;;;3.70;99.90;;;;;;5063253;28;20303;-71
2022/01/05 05:36:31;;;;;;;2.40;1.10;;;3.70;99.90;;;;;;5062158;28;20903;-67
2022/01/05 05:38:59;;;;;;;10.50;1.90;;;3.70;99.90;;;;;;5062179;28;20275;-67
2022/01/05 05:41:27;;;;;;;6.22;2.38;;;3.70;99.90;;;;;;5062985;28;20201;-66
2022/01/05 05:43:55;;;;;;;9.35;2.42;;;3.70;99.90;;;;;;5061177;28;20219;-66
2022/01/05 05:46:24;;;;;;;10.07;2.58;;;3.70;99.90;;;;;;5061535;28;20423;-66
2022/01/05 05:48:52;;;;;;;3.95;1.50;;;3.80;99.90;;;;;;5061611;28;20235;-68
2022/01/05 05:51:20;;;;;;;6.00;1.40;;;3.80;99.90;;;;;;5061966;28;20220;-65
2022/01/05 05:53:48;;;;;;;5.68;1.58;;;3.80;99.90;;;;;;5077465;28;20281;-67
2022/01/05 05:56:15;;;;;;;7.68;1.67;;;3.80;99.90;;;;;;5074460;28;20221;-67
2022/01/05 05:58:43;;;;;;;14.45;2.00;;;3.80;99.90;;;;;;5064190;28;20223;-66
2022/01/05 06:01:11;;;;;;;4.90;2.00;;;3.80;99.90;;;;;;5064259;28;20292;-67
2022/01/05 06:03:41;;;;;;;5.45;1.25;;;3.80;99.90;;;;;;5065701;28;20446;-67
2022/01/05 06:06:09;;;;;;;4.20;1.60;;;3.80;99.90;;;;;;5064604;28;20387;-67
2022/01/05 06:08:42;;;;;;;5.45;2.00;;;3.70;99.90;;;;;;5062169;28;20207;-66
2022/01/05 06:11:10;;;;;;;4.72;1.88;;;3.70;99.90;;;;;;5060764;28;20606;-68
2022/01/05 06:13:38;;;;;;;5.97;1.60;;;3.70;99.90;;;;;;5059104;28;20502;-67
2022/01/05 06:16:06;;;;;;;6.78;2.13;;;3.60;99.90;;;;;;5059880;28;20311;-69
2022/01/05 06:18:34;;;;;;;3.50;1.73;;;3.60;99.90;;;;;;5059782;28;20205;-67
2022/01/05 06:21:04;;;;;;;8.45;1.98;;;3.50;99.90;;;;;;5059397;28;20231;-68
2022/01/05 06:23:32;;;;;;;6.93;2.15;;;3.60;99.90;;;;;;5059097;28;20303;-68
2022/01/05 06:26:00;;;;;;;9.93;3.22;;;3.60;99.90;;;;;;5060362;28;20219;-73
2022/01/05 06:28:27;;;;;;;12.07;1.85;;;3.60;99.90;;;;;;5060947;28;20243;-71
2022/01/05 06:30:55;;;;;;;12.25;3.70;;;3.60;99.90;;;;;;5073795;28;20193;-71
2022/01/05 06:33:23;;;;;;;7.07;1.70;;;3.60;99.90;;;;;;5058754;28;20224;-70
2022/01/05 06:35:51;;;;;;;10.88;2.65;;;3.60;99.90;;;;;;5076595;28;20241;-71
2022/01/05 06:38:20;;;;;;;4.10;2.00;;;3.70;99.90;;;;;;5066641;28;20284;-71
2022/01/05 06:40:49;;;;;;;6.55;2.47;;;3.70;99.90;;;;;;5057936;28;20193;-71
2022/01/05 06:43:17;;;;;;;10.88;3.60;;;3.80;99.90;;;;;;5057388;28;20197;-71
2022/01/05 06:45:45;;;;;;;7.50;2.53;;;3.70;99.90;;;;;;5057981;28;20221;-71
2022/01/05 06:48:13;;;;;;;6.97;2.08;;;3.80;99.90;;;;;;5058009;28;20463;-68
2022/01/05 06:50:41;;;;;;;10.80;2.85;;;3.90;99.90;;;;;;5058065;28;20197;-68
2022/01/05 06:53:08;;;;;;;3.60;2.05;;;3.80;99.90;;;;;;5057845;28;20217;-68
2022/01/05 06:55:38;;;;;;;9.05;2.05;;;3.80;99.90;;;;;;5058428;28;20639;-68
2022/01/05 06:58:06;;;;;;;6.25;1.67;;;3.80;99.90;;;;;;5058470;28;20205;-68
2022/01/05 07:00:34;;;;;;;5.82;2.28;;;3.70;99.90;;;;;;5071421;28;20213;-67
2022/01/05 07:03:02;;;;;;;9.15;2.60;;;3.70;99.90;;;;;;5076790;28;20542;-69
2022/01/05 07:05:30;;;;;;;9.25;2.15;;;3.60;99.90;;;;;;5058498;28;20219;-67
2022/01/05 07:07:58;;;;;;;6.20;2.17;;;3.60;99.90;;;;;;5058777;28;20213;-69
2022/01/05 07:10:26;;;;;;;16.27;2.95;;;3.60;99.90;;;;;;5058645;28;20215;-68
2022/01/05 07:12:56;;;;;;;9.43;1.98;;;3.60;99.90;;;;;;5059298;28;20302;-69
2022/01/05 07:15:25;;;;;;;11.73;2.38;;;3.60;99.90;;;;;;5059852;28;20532;-70
2022/01/05 07:17:53;;;;;;;5.03;1.88;;;3.50;99.90;;;;;;5059423;28;20292;-69
2022/01/05 07:20:21;;;;;;;8.20;1.85;;;3.50;99.90;;;;;;5058039;28;20201;-70
2022/01/05 07:22:48;;;;;;;6.47;2.17;;;3.50;99.90;;;;;;5057744;28;20297;-70
2022/01/05 07:25:16;;;;;;;8.35;2.25;;;3.60;99.90;;;;;;5057831;28;20211;-70
2022/01/05 07:27:44;;;;;;;7.40;1.70;;;3.50;99.90;;;;;;5057883;28;20634;-70
2022/01/05 07:30:13;;;;;;;8.65;2.83;;;3.60;99.90;;;;;;5057895;28;20583;-69
2022/01/05 07:32:41;;;;;;;7.20;2.15;;;3.60;99.90;;;;;;5058263;28;20301;-72
2022/01/05 07:35:10;;;;;;;7.57;2.65;;;3.60;99.90;;;;;;5057455;28;20295;-74
2022/01/05 07:37:39;;;;;;;4.97;2.47;;;3.50;99.90;;;;;;5070673;28;20200;-77
2022/01/05 07:40:08;;;;;;;6.65;2.55;;;3.50;99.90;;;;;;5078627;28;20200;-75
2022/01/05 07:42:36;;;;;;;6.43;1.90;;;3.40;99.90;;;;;;5078171;28;20436;-74
2022/01/05 07:45:06;;;;;;;9.38;2.90;;;3.40;99.90;;;;;;5077821;28;20495;-73
2022/01/05 07:47:35;;;;;;;8.10;2.95;;;3.40;99.90;;;;;;5078559;28;20234;-74
2022/01/05 07:50:04;;;;;;;12.38;2.83;;;3.50;99.90;;;;;;5078170;28;20425;-74
2022/01/05 07:52:32;;;;;;;7.32;1.98;;;3.50;99.90;;;;;;5078824;28;20721;-75
2022/01/05 07:55:01;;;;;;;11.18;2.25;;;3.60;99.90;;;;;;5061552;28;20357;-78
2022/01/05 07:57:29;;;;;;;6.95;2.28;;;3.60;99.90;;;;;;5064178;28;20224;-78
2022/01/05 07:59:57;;;;;;;10.45;2.75;;;3.70;99.90;;;;;;5082331;28;20204;-74
2022/01/05 08:02:25;;;;;;;5.20;1.90;;;3.70;99.90;;;;;;5061257;28;20296;-78
2022/01/05 08:04:54;;;;;;;6.70;3.22;;;3.80;99.90;;;;;;5079255;28;20231;-76
2022/01/05 08:07:22;;;;;;;10.85;2.20;;;3.90;99.90;;;;;;5079904;28;20218;-73
2022/01/05 08:09:50;;;;;;;15.40;3.05;;;3.90;99.90;;;;;;5074609;28;20200;-77
2022/01/05 08:12:18;;;;;;;6.40;2.58;;;3.90;99.90;;;;;;5060072;28;20204;-75
2022/01/05 08:14:46;;;;;;;8.63;2.42;;;3.90;99.90;;;;;;5079735;28;20780;-74
2022/01/05 08:17:14;;;;;;;5.57;2.28;;;3.90;99.90;;;;;;5062253;28;20304;-76
2022/01/05 08:19:42;;;;;;;5.38;3.35;;;3.90;99.90;;;;;;5061921;28;20200;-76
2022/01/05 08:22:11;;;;;;;9.07;2.00;;;3.90;99.90;;;;;;5081977;28;20235;-77
2022/01/05 08:24:39;;;;;;;5.32;2.10;;;3.90;99.90;;;;;;5071198;28;20786;-77
2022/01/05 08:27:07;;;;;;;8.93;2.28;;;3.90;99.90;;;;;;5075339;28;20782;-78
2022/01/05 08:29:35;;;;;;;14.40;4.00;;;3.90;99.90;;;;;;5073085;28;20209;-78
2022/01/05 08:32:04;;;;;;;6.00;2.80;;;3.80;99.90;;;;;;5064448;28;20208;-77
2022/01/05 08:34:32;;;;;;;8.07;4.18;;;3.90;99.90;;;;;;5062644;28;20225;-79
2022/01/05 08:37:01;;;;;;;11.23;3.13;;;4.00;99.90;;;;;;5063460;28;20248;-78
2022/01/05 08:39:30;;;;;;;7.22;3.60;;;4.00;99.90;;;;;;5063232;28;20215;-76
2022/01/05 08:41:58;;;;;;;4.28;2.42;;;4.00;99.90;;;;;;5063634;28;20232;-76
2022/01/05 08:44:26;;;;;;;5.35;2.45;;;4.00;99.90;;;;;;5064681;28;20308;-78
2022/01/05 08:46:53;;;;;;;11.32;3.10;;;3.90;99.90;;;;;;5083327;28;20224;-74
2022/01/05 08:49:22;;;;;;;12.25;2.15;;;3.80;99.90;;;;;;5084022;28;20401;-76
2022/01/05 08:51:50;;;;;;;5.10;2.58;;;3.80;99.90;;;;;;5082708;28;20696;-73
2022/01/05 08:54:17;;;;;;;9.48;3.33;;;3.80;99.90;;;;;;5082432;28;20263;-72
2022/01/05 08:56:48;;;;;;;9.38;3.00;;;3.80;99.90;;;;;;5081963;28;20224;-71
2022/01/05 08:59:16;;;;;;;10.73;2.88;;;3.80;99.90;;;;;;5087794;28;20208;-70
2022/01/05 09:01:44;;;;;;;10.40;3.92;;;3.70;99.90;;;;;;5092075;28;20236;-73
2022/01/05 09:04:12;;;;;;;12.90;3.60;;;3.70;99.90;;;;;;5089173;28;20712;-70
2022/01/05 09:06:40;;;;;;;6.72;3.75;;;3.70;99.90;;;;;;5086820;28;20741;-71
2022/01/05 09:09:07;;;;;;;10.95;3.88;;;3.60;99.90;;;;;;5071987;28;20204;-73
2022/01/05 09:11:36;;;;;;;8.65;3.80;;;3.60;99.90;;;;;;5074521;28;20204;-72
2022/01/05 09:14:05;;;;;;;7.03;3.67;;;3.70;99.90;;;;;;5087788;28;20310;-77
2022/01/05 09:16:34;;;;;;;7.13;3.35;;;3.70;99.90;;;;;;5086980;28;20220;-73
2022/01/05 09:19:04;;;;;;;9.30;5.35;;;3.70;99.90;;;;;;5087353;28;20295;-74
2022/01/05 09:21:36;;;;;;;8.73;4.53;;;3.80;99.90;;;;;;5087161;28;20322;-72
2022/01/05 09:24:04;;;;;;;4.30;3.90;;;3.80;99.90;;;;;;5087139;28;20199;-74
2022/01/05 09:26:33;;;;;;;14.57;4.47;;;3.80;99.90;;;;;;5084072;28;20247;-76
2022/01/05 09:29:00;;;;;;;11.90;4.40;;;3.80;99.90;;;;;;5090696;28;20228;-74
2022/01/05 09:31:30;;;;;;;10.05;3.55;;;3.80;99.90;;;;;;5101574;28;20196;-73
2022/01/05 09:33:58;;;;;;;8.45;3.97;;;3.90;99.90;;;;;;5084182;28;20408;-73
2022/01/05 09:36:31;;;;;;;6.88;4.03;;;4.00;99.90;;;;;;5080947;28;20307;-73
2022/01/05 09:41:59;;;;;;;15.02;3.60;;;4.20;99.90;;;;;;5082033;28;20441;-76
2022/01/05 09:44:32;;;;;;;13.07;4.00;;;4.20;99.90;;;;;;5080951;28;20432;-73
2022/01/05 09:47:20;;;;;;;14.70;4.40;;;4.30;99.90;;;;;;5080607;28;20270;-73
2022/01/05 09:49:54;;;;;;;8.60;3.97;;;4.20;99.90;;;;;;5072140;28;20471;-73
2022/01/05 09:52:24;;;;;;;17.85;4.70;;;4.30;99.90;;;;;;5071804;28;20425;-73
2022/01/05 09:54:55;;;;;;;8.30;3.47;;;4.40;99.90;;;;;;5071450;28;20449;-72
2022/01/05 09:57:24;;;;;;;13.93;4.55;;;4.50;99.90;;;;;;5066004;28;20227;-75
2022/01/05 09:59:53;;;;;;;17.92;7.28;;;4.50;99.90;;;;;;5068224;28;20446;-76
2022/01/05 10:02:22;;;;;;;12.32;6.45;;;4.40;99.90;;;;;;5069385;28;20275;-75
2022/01/05 10:04:50;;;;;;;8.43;4.80;;;4.50;99.90;;;;;;5071184;28;20300;-74
2022/01/05 10:07:18;;;;;;;13.77;4.93;;;4.60;99.90;;;;;;5068401;28;20209;-73
2022/01/05 10:09:49;;;;;;;7.65;4.50;;;4.60;99.90;;;;;;5070635;28;20207;-73
2022/01/05 10:12:17;;;;;;;7.85;5.22;;;4.60;99.90;;;;;;5069845;28;20192;-73
2022/01/05 10:14:46;;;;;;;9.23;5.55;;;4.60;99.90;;;;;;5064527;28;20226;-73
2022/01/05 10:17:15;;;;;;;8.85;4.53;;;4.60;99.90;;;;;;5079261;28;20228;-71
2022/01/05 10:19:45;;;;;;;8.18;5.13;;;4.70;99.90;;;;;;5080023;28;20681;-71
2022/01/05 10:22:32;;;;;;;7.50;5.05;;;4.70;99.90;;;;;;5068940;28;20485;-72
2022/01/05 10:25:02;;;;;;;7.55;6.22;;;4.80;99.90;;;;;;5065254;28;20428;-74
2022/01/05 10:27:30;;;;;;;7.93;5.30;;;4.80;99.90;;;;;;5067015;28;20223;-71
2022/01/05 10:30:00;;;;;;;8.35;5.20;;;4.90;99.90;;;;;;5073334;28;20228;-73
2022/01/05 10:32:31;;;;;;;10.13;4.70;;;5.00;99.90;;;;;;5071131;28;20283;-74
2022/01/05 10:35:06;;;;;;;11.82;5.40;;;5.00;99.90;;;;;;5068311;28;20216;-73
2022/01/05 10:37:35;;;;;;;7.82;5.05;;;5.00;99.90;;;;;;5065664;28;20311;-72
2022/01/05 10:40:07;;;;;;;11.80;6.30;;;5.00;99.90;;;;;;5068711;28;20196;-75
2022/01/05 10:42:37;;;;;;;10.50;6.97;;;5.00;99.90;;;;;;5058888;28;20201;-72
2022/01/05 10:45:09;;;;;;;10.27;5.45;;;5.00;99.90;;;;;;5063941;28;20200;-75
2022/01/05 10:47:37;;;;;;;8.32;5.40;;;5.10;99.90;;;;;;5077040;28;20307;-74
2022/01/05 10:50:17;;;;;;;9.65;5.30;;;5.00;99.90;;;;;;5071128;28;20196;-72
2022/01/05 10:52:53;;;;;;;10.27;5.28;;;5.00;99.90;;;;;;5059395;28;20201;-72
2022/01/05 10:55:24;;;;;;;8.20;5.35;;;5.00;99.90;;;;;;5058683;28;20260;-72
2022/01/05 10:57:57;;;;;;;7.30;5.68;;;5.00;99.90;;;;;;5059999;28;20817;-77
2022/01/05 11:00:39;;;;;;;6.05;4.35;;;5.10;99.90;;;;;;5060454;28;20291;-76
2022/01/05 11:03:25;;;;;;;10.02;5.15;;;5.10;99.90;;;;;;5064653;28;20242;-70
2022/01/05 11:06:03;;;;;;;7.18;5.38;;;5.20;99.90;;;;;;5064360;28;20212;-74
2022/01/05 11:08:32;;;;;;;9.82;5.15;;;5.20;99.90;;;;;;5079504;28;20203;-72
2022/01/05 11:11:00;;;;;;;8.98;4.50;;;5.20;99.90;;;;;;5061701;28;20221;-74
2022/01/05 11:13:28;;;;;;;4.80;4.30;;;5.20;99.90;;;;;;5058867;28;20317;-73
2022/01/05 11:15:58;;;;;;;5.78;4.25;;;5.20;99.90;;;;;;5059772;28;20590;-74
2022/01/05 11:18:30;;;;;;;3.95;3.40;;;5.30;99.90;;;;;;5060094;28;20602;-75
2022/01/05 11:21:01;;;;;;;3.95;3.10;;;5.30;99.90;;;;;;5068627;28;20309;-74
2022/01/05 11:23:33;;;;;;;7.68;2.85;;;5.40;99.90;;;;;;5079858;28;20210;-72
2022/01/05 11:26:02;;;;;;;3.90;3.47;;;5.30;99.90;;;;;;5072085;28;20209;-74
2022/01/05 11:28:31;;;;;;;8.32;3.25;;;5.20;99.90;;;;;;5058885;28;20195;-73
2022/01/05 11:30:59;;;;;;;3.42;3.13;;;5.10;99.90;;;;;;5058917;28;20450;-75
2022/01/05 11:33:27;;;;;;;3.65;3.35;;;5.00;99.90;;;;;;5059081;28;20422;-74
2022/01/05 11:35:57;;;;;;;6.00;3.85;;;4.90;99.90;;;;;;5066605;28;20654;-71
2022/01/05 11:38:24;;;;;;;3.97;3.50;;;4.80;99.90;;;;;;5090602;28;20268;-73
2022/01/05 11:40:55;;;;;;;3.40;3.00;;;4.80;99.90;;;;;;5097322;28;20234;-73
2022/01/05 11:43:26;;;;;;;6.47;3.30;;;4.80;99.90;;;;;;5094157;28;20291;-77
2022/01/05 11:45:55;;;;;;;4.85;2.38;;;4.70;99.90;;;;;;5083386;28;20241;-75
2022/01/05 11:48:29;;;;;;;4.00;2.85;;;4.70;99.90;;;;;;5068303;28;20450;-72
2022/01/05 11:50:58;;;;;;;3.85;3.17;;;4.70;99.90;;;;;;5068171;28;20204;-76
2022/01/05 11:53:35;;;;;;;3.95;2.97;;;4.70;99.90;;;;;;5078358;28;20266;-76
2022/01/05 11:56:13;;;;;;;3.88;2.58;;;4.70;99.90;;;;;;5078434;28;20711;-74
2022/01/05 11:58:57;;;;;;;3.08;2.42;;;4.70;99.90;;;;;;5085005;28;20210;-76
2022/01/05 12:01:34;;;;;;;3.40;2.60;;;4.80;99.90;;;;;;5093304;28;20204;-74
2022/01/05 12:04:11;;;;;;;3.15;2.42;;;4.80;99.90;;;;;;5081046;28;20260;-78
2022/01/05 12:07:06;;;;;;;2.97;2.78;;;4.80;99.90;;;;;;5081983;28;20444;-73
2022/01/05 12:09:39;;;;;;;1.85;1.75;;;4.90;99.90;;;;;;5083759;28;20604;-74
2022/01/05 12:12:31;;;;;;;2.40;1.98;;;4.90;99.90;;;;;;5082614;28;20207;-76
2022/01/05 12:15:01;;;;;;;3.25;1.67;;;5.00;99.90;;;;;;5082701;28;20588;-76
2022/01/05 12:17:29;;;;;;;1.70;1.60;;;5.00;99.90;;;;;;5083031;28;20243;-75
2022/01/05 12:20:11;;;;;;;1.80;1.70;;;5.10;99.90;;;;;;5082456;28;20265;-77
2022/01/05 12:22:40;;;;;;;2.08;1.30;;;5.00;99.90;;;;;;5084144;28;20203;-76
2022/01/05 12:25:23;;;;;;;1.00;1.00;;;5.00;99.90;;;;;;5082289;28;20230;-76
2022/01/05 12:28:03;;;;;;;2.70;0.90;;;4.90;99.90;;;;;;5082535;28;20609;-77
2022/01/05 12:30:35;;;;;;;1.23;1.00;;;4.90;99.90;;;;;;5081914;28;20710;-76
2022/01/05 12:33:06;;;;;;;1.27;1.17;;;4.80;99.90;;;;;;5082246;28;20227;-75
2022/01/05 12:35:55;;;;;;;1.02;0.80;;;4.80;99.90;;;;;;5081753;28;20506;-76
2022/01/05 12:38:38;;;;;;;1.38;0.60;;;4.80;99.90;;;;;;5082721;28;20250;-76
2022/01/05 12:41:41;;;;;;;1.13;0.65;;;4.80;99.90;;;;;;5083814;28;20460;-73
2022/01/05 12:44:35;;;;;;;1.10;0.90;;;4.80;99.90;;;;;;5082871;28;20262;-75
2022/01/05 12:47:04;;;;;;;2.13;0.70;;;4.80;99.90;;;;;;5081735;28;20251;-72
2022/01/05 12:49:33;;;;;;;0.55;0.55;;;4.80;99.90;;;;;;5081881;28;20612;-72
2022/01/05 12:52:06;;;;;;;4.03;0.70;;;4.70;99.90;;;;;;5081990;28;20200;-75
2022/01/05 12:54:42;;;;;;;0.93;0.50;;;4.70;99.90;;;;;;5081980;28;20200;-78
2022/01/05 12:57:15;;;;;;;1.02;0.57;;;4.70;99.90;;;;;;5081764;28;20726;-74
2022/01/05 12:59:47;;;;;;;1.05;0.93;;;4.70;99.90;;;;;;5082302;28;20706;-80
2022/01/05 13:02:19;;;;;;;1.02;0.65;;;4.70;99.90;;;;;;5082841;28;20203;-73
2022/01/05 13:04:47;;;;;;;1.00;1.00;;;4.70;99.90;;;;;;5084610;28;20646;-75
2022/01/05 13:07:16;;;;;;;2.53;1.25;;;4.70;99.90;;;;;;5087682;28;20218;-71
2022/01/05 13:09:46;;;;;;;1.27;0.90;;;4.70;99.90;;;;;;5087547;28;20577;-74
2022/01/05 13:12:16;;;;;;;4.05;1.00;;;4.70;99.90;;;;;;5087720;28;20668;-71